createdAt,value
2023-02-02T09:34:10.142Z,99883.94
2023-02-02T09:36:40.095Z,99882.31
2023-02-02T09:43:52.378Z,99886.06
2023-02-02T09:47:16.005Z,99879.50
2023-02-02T09:50:44.031Z,99893.00
2023-02-02T09:53:55.278Z,99897.28
2023-02-02T09:56:43.588Z,99903.78
2023-02-02T09:59:47.640Z,99892.00
2023-02-02T10:02:42.134Z,99894.09
2023-02-02T10:05:25.408Z,99909.97
2023-02-02T10:08:02.265Z,99911.38
2023-02-02T10:10:41.652Z,99925.91
2023-02-02T10:13:43.733Z,99931.47
2023-02-02T10:16:19.427Z,99942.66
2023-02-02T10:19:06.067Z,99934.66
2023-02-02T10:22:21.121Z,99937.09
2023-02-02T10:24:48.607Z,99947.16
2023-02-02T10:27:29.537Z,99945.19
2023-02-02T10:30:02.187Z,99943.81
2023-02-02T10:32:50.719Z,99949.88
2023-02-02T10:36:21.650Z,99944.41
2023-02-02T10:39:23.965Z,99942.19
2023-02-02T10:43:04.625Z,99930.50
2023-02-02T10:45:32.322Z,99937.19
2023-02-02T10:48:00.185Z,99936.38
2023-02-02T10:50:28.174Z,99932.53
2023-02-02T10:53:03.299Z,99924.72
2023-02-02T10:55:49.850Z,99934.94
2023-02-02T10:59:17.842Z,99944.94
2023-02-02T11:01:45.881Z,99942.69
2023-02-02T11:04:31.776Z,99945.81
2023-02-02T11:07:01.451Z,99937.81
2023-02-02T11:09:38.449Z,99933.75
2023-02-02T11:12:37.491Z,99932.81
2023-02-02T11:15:30.783Z,99934.53
2023-02-02T11:18:27.263Z,99919.13
2023-02-02T11:20:55.243Z,99926.88
2023-02-02T11:23:25.155Z,99920.97
2023-02-02T11:26:02.205Z,99929.56
2023-02-02T11:28:35.693Z,99929.88
2023-02-02T11:31:03.752Z,99930.59
2023-02-02T11:33:36.556Z,99921.56
2023-02-02T11:36:22.129Z,99920.66
2023-02-02T11:39:19.188Z,99915.13
2023-02-02T11:41:46.522Z,99924.41
2023-02-02T11:44:29.208Z,99917.91
2023-02-02T11:46:57.431Z,99921.59
2023-02-02T11:49:25.641Z,99909.69
2023-02-02T11:52:06.720Z,99893.69
2023-02-02T11:54:38.957Z,99891.91
2023-02-02T11:57:10.108Z,99883.84
2023-02-02T11:59:44.963Z,99889.22
2023-02-02T12:02:31.573Z,99884.72
2023-02-02T12:05:14.664Z,99883.00
2023-02-02T12:07:44.473Z,99883.88
2023-02-02T12:10:27.121Z,99892.13
2023-02-02T12:13:29.982Z,99884.31
2023-02-02T12:16:37.003Z,99890.44
2023-02-02T12:20:08.448Z,99884.41
2023-02-02T12:22:56.878Z,99888.50
2023-02-02T12:26:22.625Z,99884.09
2023-02-02T12:29:18.737Z,99889.81
2023-02-02T12:32:46.605Z,99891.69
2023-02-02T12:36:30.358Z,99876.16
2023-02-02T12:39:52.551Z,99885.44
2023-02-02T12:43:17.005Z,99889.69
2023-02-02T12:46:29.793Z,99897.69
2023-02-02T12:49:52.014Z,99892.91
2023-02-02T12:53:07.272Z,99888.25
2023-02-02T12:56:29.664Z,99897.69
2023-02-02T12:59:48.852Z,99897.59
2023-02-02T13:02:59.395Z,99896.88
2023-02-02T13:06:28.534Z,99894.41
2023-02-02T13:09:27.376Z,99887.50
2023-02-02T13:12:10.340Z,99898.25
2023-02-02T13:15:02.626Z,99883.22
2023-02-02T13:17:56.334Z,99882.88
2023-02-02T13:20:53.113Z,99883.53
2023-02-02T13:23:42.923Z,99896.66
2023-02-02T13:26:32.497Z,99894.00
2023-02-02T13:29:14.848Z,99884.84
2023-02-02T13:32:30.447Z,99879.53
2023-02-02T13:35:21.509Z,99894.41
2023-02-02T13:38:12.887Z,99899.19
2023-02-02T13:40:44.441Z,99904.78
2023-02-02T13:44:09.210Z,99906.66
2023-02-02T13:47:11.514Z,99899.78
2023-02-02T13:50:00.620Z,99889.22
2023-02-02T13:53:39.632Z,99883.88
2023-02-02T13:57:26.687Z,99886.59
2023-02-02T14:00:14.139Z,99893.78
2023-02-02T14:03:40.984Z,99895.56
2023-02-02T14:06:17.165Z,99879.03
2023-02-02T14:09:04.586Z,99874.88
2023-02-02T14:11:42.567Z,99883.97
2023-02-02T14:14:31.835Z,99887.19
2023-02-02T14:17:15.194Z,99896.59
2023-02-02T14:20:01.640Z,99889.28
2023-02-02T14:22:50.882Z,99894.59
2023-02-02T14:25:33.505Z,99884.06
2023-02-02T14:28:48.164Z,99893.78
2023-02-02T14:31:54.493Z,99895.50
2023-02-02T14:34:40.090Z,99884.84
2023-02-02T14:37:28.224Z,99897.69
2023-02-02T14:40:11.047Z,99916.81
2023-02-02T14:43:45.566Z,99914.41
2023-02-02T14:46:16.056Z,99923.13
2023-02-02T14:49:27.172Z,99925.47
2023-02-02T14:52:02.125Z,99928.16
2023-02-02T14:54:42.283Z,99928.47
2023-02-02T14:57:28.633Z,99934.41
2023-02-02T14:59:59.374Z,99937.03
2023-02-02T15:02:37.536Z,99945.47
2023-02-02T15:05:39.084Z,99951.75
2023-02-02T15:08:24.729Z,99942.50
2023-02-02T15:11:24.464Z,99953.31
2023-02-02T15:14:02.339Z,99941.13
2023-02-02T15:16:31.973Z,99948.63
2023-02-02T15:19:17.078Z,99947.09
2023-02-02T15:21:47.788Z,99936.13
2023-02-02T15:24:28.386Z,99948.31
2023-02-02T15:26:58.429Z,99936.84
